Time;durP1;ratioP1;P1;durP2;ratioP2;P2;SDS_P1;SDS_P2;PMS_P1;PMS_P2;Temp;Humidity;BMP_temperature;BMP_pressure;BME280_temperature;BME280_humidity;BME280_pressure;Samples;Min_cycle;Max_cycle;Signal;HPM_P1;HPM_P2
2022/04/19 00:00:27;;;;;;;14.38;9.43;;;8.10;99.90;;;;;;5060960;28;20056;-75
2022/04/19 00:02:53;;;;;;;14.68;10.10;;;8.00;99.90;;;;;;5057277;28;20487;-76
2022/04/19 00:05:18;;;;;;;17.75;11.63;;;7.90;99.90;;;;;;5060144;28;20047;-76
2022/04/19 00:07:44;;;;;;;14.35;9.73;;;7.90;99.90;;;;;;5057123;28;20064;-75
2022/04/19 00:10:10;;;;;;;15.27;9.40;;;7.90;99.90;;;;;;5057527;28;20060;-76
2022/04/19 00:12:36;;;;;;;17.52;10.18;;;7.80;99.90;;;;;;5059736;28;20056;-76
2022/04/19 00:15:03;;;;;;;13.63;9.55;;;7.90;99.90;;;;;;5055888;28;20044;-75
2022/04/19 00:17:28;;;;;;;20.92;10.70;;;7.90;99.90;;;;;;5050193;28;20403;-76
2022/04/19 00:19:54;;;;;;;16.23;9.27;;;7.90;99.90;;;;;;5062383;28;20044;-76
2022/04/19 00:22:20;;;;;;;19.63;11.93;;;8.00;99.90;;;;;;5046859;28;20071;-75
2022/04/19 00:24:46;;;;;;;12.48;9.50;;;7.90;99.90;;;;;;5060231;28;20040;-76
2022/04/19 00:27:12;;;;;;;17.58;9.73;;;7.90;99.90;;;;;;5052949;28;20119;-77
2022/04/19 00:29:41;;;;;;;15.77;9.63;;;7.80;99.90;;;;;;5053698;28;20078;-75
2022/04/19 00:32:08;;;;;;;16.33;11.02;;;7.70;99.90;;;;;;5054891;28;20090;-76
2022/04/19 00:34:34;;;;;;;14.88;9.10;;;7.70;99.90;;;;;;5048279;28;20056;-76
2022/04/19 00:37:01;;;;;;;14.48;10.25;;;7.60;99.90;;;;;;5050969;28;20029;-74
2022/04/19 00:39:26;;;;;;;18.42;11.98;;;7.50;99.90;;;;;;5052644;28;20051;-75
2022/04/19 00:41:52;;;;;;;16.52;10.75;;;7.50;99.90;;;;;;5049438;28;20037;-74
2022/04/19 00:44:18;;;;;;;13.25;9.98;;;7.40;99.90;;;;;;5047461;28;20053;-75
2022/04/19 00:46:43;;;;;;;14.07;9.55;;;7.50;99.90;;;;;;5061023;28;20029;-76
2022/04/19 00:49:09;;;;;;;12.13;8.80;;;7.50;99.90;;;;;;5057444;28;20077;-77
2022/04/19 00:51:35;;;;;;;11.27;7.15;;;7.50;99.90;;;;;;5050461;28;20029;-76
2022/04/19 00:54:01;;;;;;;13.23;7.72;;;7.50;99.90;;;;;;5054370;28;20040;-76
2022/04/19 00:56:29;;;;;;;11.63;8.30;;;7.50;99.90;;;;;;5048774;28;20056;-75
2022/04/19 00:58:55;;;;;;;17.00;9.75;;;7.50;99.90;;;;;;5051385;28;20076;-75
2022/04/19 01:01:21;;;;;;;14.48;8.95;;;7.40;99.90;;;;;;5057514;28;20123;-75
2022/04/19 01:03:46;;;;;;;10.95;7.68;;;7.30;99.90;;;;;;5056306;28;20505;-75
2022/04/19 01:06:12;;;;;;;9.00;8.02;;;7.40;99.90;;;;;;5058680;28;20062;-75
2022/04/19 01:08:38;;;;;;;11.63;7.75;;;7.30;99.90;;;;;;5060066;28;20033;-73
2022/04/19 01:13:48;;;;;;;8.45;7.55;;;7.40;99.90;;;;;;5047209;28;20045;-73
2022/04/19 01:16:16;;;;;;;10.65;8.05;;;7.30;99.90;;;;;;5058596;28;20052;-74
2022/04/19 01:18:42;;;;;;;12.52;8.23;;;7.30;99.90;;;;;;5053394;28;20056;-74
2022/04/19 01:21:08;;;;;;;17.15;8.23;;;7.10;99.90;;;;;;5054705;28;20049;-73
2022/04/19 01:23:34;;;;;;;10.68;7.47;;;7.00;99.90;;;;;;5051235;28;20130;-74
2022/04/19 01:26:00;;;;;;;8.30;7.15;;;7.10;99.90;;;;;;5047706;28;20077;-74
2022/04/19 01:28:25;;;;;;;15.13;8.63;;;7.00;99.90;;;;;;5049609;28;20580;-76
2022/04/19 01:30:54;;;;;;;10.45;6.93;;;7.10;99.90;;;;;;5047521;28;20045;-75
2022/04/19 01:33:21;;;;;;;13.20;8.20;;;6.90;99.90;;;;;;5048929;28;20045;-78
2022/04/19 01:35:48;;;;;;;11.88;8.07;;;6.80;99.90;;;;;;5065995;28;20067;-75
2022/04/19 01:38:14;;;;;;;11.55;8.15;;;6.90;99.90;;;;;;5062490;28;20028;-76
2022/04/19 01:40:40;;;;;;;10.25;6.90;;;6.70;99.90;;;;;;5058288;28;20408;-75
2022/04/19 01:43:06;;;;;;;13.00;8.63;;;6.70;99.90;;;;;;5055596;28;20084;-75
2022/04/19 01:45:33;;;;;;;13.20;9.60;;;6.80;99.90;;;;;;5053913;28;20037;-75
2022/04/19 01:48:00;;;;;;;10.02;8.20;;;6.80;99.90;;;;;;5041468;28;20039;-75
2022/04/19 01:50:28;;;;;;;13.40;9.25;;;6.90;99.90;;;;;;5053815;28;20056;-74
2022/04/19 01:52:55;;;;;;;10.48;8.10;;;6.90;99.90;;;;;;5065194;28;20041;-75
2022/04/19 01:55:22;;;;;;;10.95;8.75;;;6.80;99.90;;;;;;5070154;28;20406;-76
2022/04/19 01:57:53;;;;;;;14.30;9.98;;;6.70;99.90;;;;;;5059349;28;20119;-76
2022/04/19 02:00:19;;;;;;;16.75;10.02;;;6.70;99.90;;;;;;5052998;28;20114;-75
2022/04/19 02:02:46;;;;;;;12.35;8.88;;;6.60;99.90;;;;;;5055074;28;20040;-76
2022/04/19 02:05:13;;;;;;;14.82;10.93;;;6.60;99.90;;;;;;5054215;28;20077;-74
2022/04/19 02:07:40;;;;;;;13.23;9.18;;;6.40;99.90;;;;;;5057699;28;20044;-77
2022/04/19 02:10:07;;;;;;;16.48;10.80;;;6.40;99.90;;;;;;5058922;28;20091;-75
2022/04/19 02:12:33;;;;;;;15.18;10.85;;;6.40;99.90;;;;;;5031423;28;20057;-75
2022/04/19 02:14:59;;;;;;;19.92;12.27;;;6.30;99.90;;;;;;5063712;28;20053;-74
2022/04/19 02:17:25;;;;;;;19.75;12.60;;;6.30;99.90;;;;;;5051747;28;20460;-76
2022/04/19 02:20:01;;;;;;;13.63;10.07;;;6.30;99.90;;;;;;5057589;28;20083;-76
2022/04/19 02:22:27;;;;;;;19.65;12.40;;;6.30;99.90;;;;;;5053338;28;20073;-76
2022/04/19 02:24:55;;;;;;;43.72;12.18;;;6.30;99.90;;;;;;5054428;28;20033;-76
2022/04/19 02:27:21;;;;;;;20.55;11.80;;;6.20;99.90;;;;;;5058015;28;20079;-77
2022/04/19 02:29:47;;;;;;;16.98;12.10;;;6.10;99.90;;;;;;5054702;28;20047;-76
2022/04/19 02:32:13;;;;;;;19.38;11.30;;;6.00;99.90;;;;;;5057365;28;20498;-76
2022/04/19 02:34:39;;;;;;;16.75;12.50;;;6.10;99.90;;;;;;5053809;28;20060;-77
2022/04/19 02:37:04;;;;;;;19.80;12.60;;;6.10;99.90;;;;;;5060087;28;20037;-76
2022/04/19 02:39:30;;;;;;;18.13;10.52;;;6.10;99.90;;;;;;5053893;28;20045;-74
2022/04/19 02:41:56;;;;;;;17.00;12.45;;;6.10;99.90;;;;;;5051556;28;20186;-76
2022/04/19 02:44:21;;;;;;;17.95;11.40;;;6.10;99.90;;;;;;5052496;28;20056;-75
2022/04/19 02:46:47;;;;;;;18.80;14.15;;;6.10;99.90;;;;;;5064204;28;20421;-75
2022/04/19 02:49:13;;;;;;;18.85;11.70;;;6.00;99.90;;;;;;5055274;28;20448;-75
2022/04/19 02:51:38;;;;;;;22.50;12.70;;;5.90;99.90;;;;;;5051465;28;20039;-77
2022/04/19 02:54:04;;;;;;;14.85;11.10;;;6.00;99.90;;;;;;5061782;28;20119;-76
2022/04/19 02:56:30;;;;;;;13.80;11.27;;;6.00;99.90;;;;;;5054434;28;20045;-75
2022/04/19 02:58:55;;;;;;;22.80;12.70;;;6.10;99.90;;;;;;5047994;28;20403;-75
2022/04/19 03:01:21;;;;;;;16.70;12.05;;;6.20;99.90;;;;;;5049975;28;20103;-76
2022/04/19 03:03:46;;;;;;;16.80;11.45;;;6.20;99.90;;;;;;5055899;28;20040;-76
2022/04/19 03:06:12;;;;;;;18.33;12.07;;;6.20;99.90;;;;;;5051221;28;20079;-75
2022/04/19 03:08:38;;;;;;;22.60;12.18;;;6.20;99.90;;;;;;5050027;28;20068;-76
2022/04/19 03:11:03;;;;;;;20.60;11.82;;;6.00;99.90;;;;;;5050871;28;20037;-75
2022/04/19 03:13:31;;;;;;;13.73;11.23;;;5.80;99.90;;;;;;5062446;28;20095;-76
2022/04/19 03:15:56;;;;;;;17.23;11.27;;;5.70;99.90;;;;;;5063677;28;20041;-76
2022/04/19 03:18:22;;;;;;;17.52;10.95;;;5.70;99.90;;;;;;5054370;28;20051;-76
2022/04/19 03:20:48;;;;;;;16.48;12.85;;;5.60;99.90;;;;;;5048208;28;20529;-76
2022/04/19 03:28:45;;;;;;;30.33;15.50;;;5.40;99.90;;;;;;5066104;28;20075;-76
2022/04/19 03:31:12;;;;;;;20.58;14.05;;;5.30;99.90;;;;;;5061528;28;20047;-75
2022/04/19 03:33:38;;;;;;;16.10;12.75;;;5.20;99.90;;;;;;5056276;28;20037;-75
2022/04/19 03:36:04;;;;;;;19.42;12.20;;;5.20;99.90;;;;;;5063653;28;20172;-75
2022/04/19 03:38:30;;;;;;;22.27;13.40;;;5.30;99.90;;;;;;5057422;28;20519;-74
2022/04/19 03:40:56;;;;;;;18.20;12.68;;;5.30;99.90;;;;;;5050845;28;20060;-74
2022/04/19 03:43:22;;;;;;;17.13;13.40;;;5.40;99.90;;;;;;5058189;28;20122;-76
2022/04/19 03:45:48;;;;;;;23.83;14.02;;;5.50;99.90;;;;;;5061283;28;20131;-76
2022/04/19 03:48:13;;;;;;;19.98;11.93;;;5.60;99.90;;;;;;5066495;28;20136;-76
2022/04/19 03:50:40;;;;;;;17.77;12.90;;;5.60;99.90;;;;;;5054942;28;20056;-77
2022/04/19 03:53:06;;;;;;;21.38;12.98;;;5.70;99.90;;;;;;5063181;28;20050;-75
2022/04/19 03:55:32;;;;;;;18.38;12.73;;;5.70;99.90;;;;;;5050330;28;20049;-76
2022/04/19 03:57:58;;;;;;;16.25;11.10;;;5.60;99.90;;;;;;5047420;28;20053;-75
2022/04/19 04:00:23;;;;;;;18.67;12.00;;;5.60;99.90;;;;;;5053557;28;20045;-76
2022/04/19 04:02:49;;;;;;;14.82;11.73;;;5.60;99.90;;;;;;5048251;28;20070;-75
2022/04/19 04:05:15;;;;;;;17.48;11.43;;;5.50;99.90;;;;;;5055100;28;20086;-75
2022/04/19 04:07:41;;;;;;;17.98;13.07;;;5.50;99.90;;;;;;5054778;28;20498;-74
2022/04/19 04:10:07;;;;;;;14.65;11.57;;;5.50;99.90;;;;;;5048798;28;20056;-75
2022/04/19 04:12:33;;;;;;;16.35;11.70;;;5.50;99.90;;;;;;5046405;28;20483;-76
2022/04/19 04:15:01;;;;;;;19.13;13.07;;;5.30;99.90;;;;;;5052547;28;20407;-75
2022/04/19 04:17:27;;;;;;;19.58;12.10;;;5.40;99.90;;;;;;5053672;28;20037;-76
2022/04/19 04:19:52;;;;;;;17.83;12.43;;;5.50;99.90;;;;;;5061496;28;20052;-76
2022/04/19 04:22:18;;;;;;;17.50;10.98;;;5.70;99.90;;;;;;5058365;28;20051;-75
2022/04/19 04:24:44;;;;;;;17.75;11.13;;;5.70;99.90;;;;;;5048076;28;20041;-76
2022/04/19 04:27:09;;;;;;;15.75;11.65;;;5.70;99.90;;;;;;5051902;28;20050;-75
2022/04/19 04:29:36;;;;;;;18.33;12.90;;;5.80;99.90;;;;;;5051983;28;20483;-75
2022/04/19 04:32:03;;;;;;;19.88;12.40;;;5.80;99.90;;;;;;5042844;28;20234;-74
2022/04/19 04:34:28;;;;;;;16.17;11.35;;;5.90;99.90;;;;;;5052605;28;21124;-76
2022/04/19 04:36:54;;;;;;;19.30;13.88;;;6.00;99.90;;;;;;5052237;28;20067;-75
2022/04/19 04:39:19;;;;;;;23.77;14.30;;;6.00;99.90;;;;;;5051267;28;20033;-76
2022/04/19 04:41:45;;;;;;;18.60;12.82;;;6.00;99.90;;;;;;5053006;28;20490;-74
2022/04/19 04:44:11;;;;;;;17.77;13.50;;;6.00;99.90;;;;;;5046863;28;20037;-75
2022/04/19 04:49:36;;;;;;;14.82;12.43;;;6.00;99.90;;;;;;5051236;28;20037;-73
2022/04/19 04:52:10;;;;;;;19.17;12.07;;;6.20;99.90;;;;;;5068298;28;20044;-76
2022/04/19 04:54:37;;;;;;;21.60;12.40;;;6.40;99.90;;;;;;5061131;28;20037;-74
2022/04/19 04:57:03;;;;;;;17.63;12.05;;;6.40;99.90;;;;;;5063659;28;20057;-73
2022/04/19 04:59:32;;;;;;;18.92;11.85;;;6.30;99.90;;;;;;5050710;28;20052;-76
2022/04/19 05:01:59;;;;;;;18.67;13.05;;;6.30;99.90;;;;;;5059868;28;20041;-75
2022/04/19 05:04:25;;;;;;;35.78;11.45;;;6.30;99.90;;;;;;5049303;28;20044;-75
2022/04/19 05:06:50;;;;;;;22.48;11.75;;;6.50;99.90;;;;;;5050575;28;20048;-75
2022/04/19 05:09:16;;;;;;;18.38;11.27;;;6.70;99.90;;;;;;5052809;28;20056;-74
2022/04/19 05:11:42;;;;;;;17.40;10.65;;;6.70;99.90;;;;;;5052425;28;20441;-74
2022/04/19 05:14:08;;;;;;;14.73;9.68;;;6.80;99.90;;;;;;5055852;28;20579;-73
2022/04/19 05:16:36;;;;;;;22.75;11.13;;;7.10;99.90;;;;;;5063798;28;20033;-73
2022/04/19 05:19:03;;;;;;;14.90;10.20;;;7.10;99.90;;;;;;5067463;28;20037;-73
2022/04/19 05:21:29;;;;;;;16.38;9.13;;;7.30;99.90;;;;;;5051845;28;20052;-75
2022/04/19 05:23:55;;;;;;;12.68;9.73;;;7.40;99.90;;;;;;5050833;28;20033;-73
2022/04/19 05:26:21;;;;;;;11.45;9.30;;;7.40;99.90;;;;;;5055282;28;20061;-72
2022/04/19 05:28:47;;;;;;;15.00;10.75;;;7.40;99.90;;;;;;5054346;28;20041;-73
2022/04/19 05:31:13;;;;;;;13.57;10.23;;;7.60;99.90;;;;;;5056773;28;20120;-73
2022/04/19 05:33:38;;;;;;;12.07;8.05;;;8.00;99.90;;;;;;5063077;28;20062;-76
2022/04/19 05:36:04;;;;;;;12.07;8.43;;;8.40;99.90;;;;;;5053467;28;20047;-74
2022/04/19 05:38:30;;;;;;;11.75;8.75;;;8.40;99.90;;;;;;5052711;28;20055;-74
2022/04/19 05:40:56;;;;;;;11.55;9.18;;;8.60;99.90;;;;;;5048246;28;20043;-73
2022/04/19 05:43:22;;;;;;;11.43;6.95;;;9.00;99.90;;;;;;5050283;28;20041;-74
2022/04/19 05:45:48;;;;;;;12.82;9.65;;;9.30;99.90;;;;;;5060541;28;20052;-74
2022/04/19 05:48:13;;;;;;;14.60;9.00;;;9.00;99.90;;;;;;5052953;28;20140;-75
2022/04/19 05:50:39;;;;;;;10.82;7.22;;;8.60;99.90;;;;;;5065864;28;20364;-76
2022/04/19 05:53:05;;;;;;;12.85;8.55;;;8.90;99.90;;;;;;5069712;28;20135;-74
2022/04/19 05:55:32;;;;;;;13.80;8.20;;;8.70;99.90;;;;;;5071338;28;20396;-73
2022/04/19 05:57:58;;;;;;;13.45;10.18;;;8.40;99.90;;;;;;5070660;28;20045;-75
2022/04/19 06:00:24;;;;;;;13.57;8.95;;;8.50;99.90;;;;;;5046572;28;20437;-73
2022/04/19 06:05:34;;;;;;;13.10;9.23;;;8.50;99.90;;;;;;5058786;28;20423;-74
2022/04/19 06:08:00;;;;;;;12.17;9.53;;;8.70;99.90;;;;;;5053766;28;20842;-74
2022/04/19 06:10:25;;;;;;;16.83;9.53;;;8.80;99.90;;;;;;5057179;28;20425;-74
2022/04/19 06:12:51;;;;;;;14.60;8.48;;;8.90;99.90;;;;;;5052656;28;20052;-74
2022/04/19 06:15:17;;;;;;;10.73;8.10;;;8.80;99.90;;;;;;5068468;28;20056;-74
2022/04/19 06:17:42;;;;;;;12.15;7.55;;;8.80;99.90;;;;;;5059726;28;20131;-75
2022/04/19 06:20:09;;;;;;;11.38;8.07;;;8.90;99.90;;;;;;5058219;28;20044;-76
2022/04/19 06:22:34;;;;;;;13.35;8.85;;;9.00;99.90;;;;;;5062304;28;20086;-74
2022/04/19 06:25:01;;;;;;;14.60;8.68;;;9.10;99.90;;;;;;5070813;28;20451;-74
2022/04/19 06:27:27;;;;;;;12.77;8.90;;;9.10;99.90;;;;;;5064338;28;20404;-75
2022/04/19 06:29:53;;;;;;;14.20;8.70;;;9.30;99.90;;;;;;5051775;28;20087;-74
2022/04/19 06:32:22;;;;;;;28.05;8.90;;;9.70;99.90;;;;;;5052673;28;20487;-74
2022/04/19 06:34:48;;;;;;;13.38;8.80;;;9.50;99.90;;;;;;5060038;28;20127;-73
2022/04/19 06:37:14;;;;;;;15.00;8.32;;;9.50;99.90;;;;;;5050497;28;20095;-74
2022/04/19 06:39:39;;;;;;;17.05;9.38;;;9.50;99.90;;;;;;5054370;28;20124;-73
2022/04/19 06:42:05;;;;;;;28.02;9.25;;;9.50;99.90;;;;;;5050089;28;20132;-74
2022/04/19 06:44:31;;;;;;;14.95;9.43;;;9.40;99.90;;;;;;5053525;28;20056;-75
2022/04/19 06:46:57;;;;;;;11.48;8.05;;;9.60;99.90;;;;;;5071384;28;20074;-74
2022/04/19 06:49:23;;;;;;;14.10;8.40;;;9.80;99.90;;;;;;5056428;28;20083;-74
2022/04/19 06:51:49;;;;;;;14.05;7.22;;;9.90;99.90;;;;;;5079237;28;20181;-73
2022/04/19 06:54:15;;;;;;;12.63;8.52;;;10.20;99.90;;;;;;5054447;28;20053;-74
2022/04/19 06:56:41;;;;;;;14.15;9.35;;;10.50;99.90;;;;;;5069255;28;20053;-75
2022/04/19 06:59:10;;;;;;;15.35;9.93;;;10.80;99.90;;;;;;5059463;28;20040;-75
2022/04/19 07:01:38;;;;;;;13.60;8.30;;;11.00;99.90;;;;;;5053507;28;20087;-74
2022/04/19 07:04:04;;;;;;;12.73;8.55;;;11.90;99.90;;;;;;5050195;28;20048;-74
2022/04/19 07:06:29;;;;;;;13.50;8.38;;;12.70;99.90;;;;;;5055229;28;20053;-77
2022/04/19 07:08:55;;;;;;;11.35;8.05;;;12.80;99.90;;;;;;5051144;28;20055;-75
2022/04/19 07:11:20;;;;;;;11.10;8.65;;;13.10;99.90;;;;;;5053741;28;20398;-76
2022/04/19 07:13:46;;;;;;;14.65;7.95;;;13.30;99.90;;;;;;5061643;28;20082;-75
2022/04/19 07:16:11;;;;;;;12.05;7.82;;;12.70;99.90;;;;;;5063428;28;20053;-76
2022/04/19 07:18:37;;;;;;;15.20;9.70;;;12.00;99.90;;;;;;5052375;28;20048;-75
2022/04/19 07:26:37;;;;;;;12.85;8.45;;;11.00;99.90;;;;;;5062460;28;20542;-77
2022/04/19 07:29:03;;;;;;;11.00;8.13;;;11.00;99.90;;;;;;5052940;28;20041;-77
2022/04/19 07:31:29;;;;;;;13.00;7.88;;;11.10;99.90;;;;;;5053014;28;20471;-76
2022/04/19 07:33:54;;;;;;;11.50;7.63;;;11.30;99.90;;;;;;5050236;28;20087;-76
2022/04/19 07:36:20;;;;;;;11.45;7.60;;;11.30;99.90;;;;;;5051118;28;20041;-76
2022/04/19 07:38:46;;;;;;;11.43;8.25;;;11.60;99.90;;;;;;5050127;28;20033;-76
2022/04/19 07:41:12;;;;;;;11.75;7.53;;;11.70;99.90;;;;;;5064289;28;20048;-76
2022/04/19 07:43:38;;;;;;;14.00;7.30;;;11.90;99.90;;;;;;5058721;28;20053;-77
2022/04/19 07:46:04;;;;;;;10.20;6.65;;;11.90;99.90;;;;;;5058666;28;20057;-76
2022/04/19 07:48:30;;;;;;;14.00;8.27;;;11.80;99.90;;;;;;5059738;28;20513;-77
2022/04/19 07:50:56;;;;;;;14.93;8.02;;;12.10;99.90;;;;;;5058359;28;20042;-78
2022/04/19 07:53:23;;;;;;;12.75;8.18;;;12.10;99.90;;;;;;5069582;28;20487;-75
2022/04/19 07:55:48;;;;;;;13.75;7.97;;;12.30;99.90;;;;;;5062690;28;20054;-80
2022/04/19 07:58:14;;;;;;;12.60;8.98;;;12.30;99.90;;;;;;5049854;28;20037;-78
2022/04/19 08:00:40;;;;;;;17.33;7.97;;;12.60;99.90;;;;;;5055214;28;20052;-78
2022/04/19 08:03:06;;;;;;;13.73;7.22;;;12.60;99.90;;;;;;5068850;28;20036;-78
2022/04/19 08:05:31;;;;;;;9.88;7.80;;;12.60;99.90;;;;;;5067562;28;20455;-79
2022/04/19 08:07:57;;;;;;;12.38;6.95;;;12.90;99.90;;;;;;5054995;28;20135;-78
2022/04/19 08:10:23;;;;;;;12.48;6.97;;;13.00;99.90;;;;;;5063238;28;20044;-78
2022/04/19 08:12:49;;;;;;;13.05;6.85;;;13.20;99.90;;;;;;5049966;28;20128;-78
2022/04/19 08:15:15;;;;;;;12.82;7.65;;;13.20;99.90;;;;;;5037651;28;20041;-79
2022/04/19 08:17:41;;;;;;;11.15;5.90;;;13.20;99.90;;;;;;5054801;28;20045;-78
2022/04/19 08:20:07;;;;;;;9.48;6.28;;;13.30;99.90;;;;;;5057387;28;20040;-77
2022/04/19 08:22:33;;;;;;;10.82;7.20;;;13.40;99.90;;;;;;5060823;28;20128;-76
2022/04/19 08:25:00;;;;;;;11.45;6.35;;;13.60;99.90;;;;;;5068990;28;20155;-76
2022/04/19 08:27:25;;;;;;;10.18;4.88;;;13.60;99.90;;;;;;5073602;28;20111;-76
2022/04/19 08:29:51;;;;;;;9.45;5.25;;;13.60;99.90;;;;;;5089093;28;20035;-76
2022/04/19 08:32:17;;;;;;;12.05;5.72;;;13.80;99.90;;;;;;5090075;28;20044;-77
2022/04/19 08:34:43;;;;;;;8.13;6.15;;;14.00;99.90;;;;;;5060570;28;20045;-75
2022/04/19 08:37:09;;;;;;;12.13;5.97;;;13.90;99.90;;;;;;5075956;28;20135;-76
2022/04/19 08:39:36;;;;;;;7.20;5.25;;;14.10;99.90;;;;;;5072688;28;20067;-76
2022/04/19 08:42:04;;;;;;;6.78;3.72;;;14.10;99.90;;;;;;5070231;28;20040;-77
2022/04/19 08:44:29;;;;;;;7.20;4.18;;;14.00;99.90;;;;;;5065859;28;20045;-78
2022/04/19 08:46:56;;;;;;;7.07;3.65;;;14.10;99.90;;;;;;5089730;28;20487;-78
2022/04/19 08:49:24;;;;;;;6.68;3.42;;;14.20;99.90;;;;;;5061104;28;20445;-77
2022/04/19 08:51:50;;;;;;;6.75;3.25;;;14.10;99.90;;;;;;5058983;28;20044;-78
2022/04/19 08:59:44;;;;;;;8.77;4.30;;;14.10;99.90;;;;;;5060172;28;20127;-79
2022/04/19 09:02:24;;;;;;;6.32;4.03;;;14.20;99.90;;;;;;5057455;28;20088;-82
2022/04/19 09:04:50;;;;;;;6.25;4.25;;;14.20;99.90;;;;;;5057969;28;20093;-78
2022/04/19 09:07:17;;;;;;;4.93;3.28;;;14.10;99.90;;;;;;5056671;28;20052;-77
2022/04/19 09:09:56;;;;;;;7.43;4.03;;;14.30;99.90;;;;;;5055337;28;20049;-77
2022/04/19 09:12:21;;;;;;;6.45;4.30;;;14.20;99.90;;;;;;5063859;28;20128;-77
2022/04/19 09:14:58;;;;;;;8.40;4.38;;;14.30;99.90;;;;;;5076678;28;20131;-77
2022/04/19 09:17:35;;;;;;;5.63;3.85;;;14.50;99.90;;;;;;5071891;28;20037;-77
2022/04/19 09:20:27;;;;;;;7.68;4.32;;;14.50;99.90;;;;;;5069230;28;20045;-77
2022/04/19 09:23:06;;;;;;;5.50;3.65;;;14.60;99.90;;;;;;5062388;28;20078;-77
2022/04/19 09:25:32;;;;;;;6.07;3.78;;;14.80;99.90;;;;;;5064057;28;20044;-77
2022/04/19 09:27:59;;;;;;;5.72;4.13;;;14.70;99.90;;;;;;5072941;28;20452;-76
2022/04/19 09:30:31;;;;;;;6.88;3.38;;;14.60;99.90;;;;;;5075178;28;20158;-77
2022/04/19 09:33:00;;;;;;;3.75;3.08;;;14.90;99.90;;;;;;5064723;28;20048;-78
2022/04/19 09:35:30;;;;;;;4.97;3.38;;;14.90;99.90;;;;;;5076599;28;20085;-76
2022/04/19 09:37:56;;;;;;;;;;;14.80;99.90;;;;;;5075617;28;20036;-76
2022/04/19 09:40:48;;;;;;;4.30;3.20;;;14.80;99.90;;;;;;5076310;28;19938;-77
2022/04/19 09:43:20;;;;;;;4.07;2.50;;;15.00;99.90;;;;;;5068133;28;20071;-78
2022/04/19 09:46:02;;;;;;;5.47;2.70;;;15.00;99.90;;;;;;5076556;28;20088;-77
2022/04/19 09:48:47;;;;;;;6.45;2.75;;;15.10;99.90;;;;;;5040507;28;20056;-78
2022/04/19 09:51:13;;;;;;;4.90;2.08;;;14.90;99.90;;;;;;5056291;28;20094;-78
2022/04/19 09:53:46;;;;;;;2.65;2.03;;;15.20;99.90;;;;;;5057109;28;20045;-77
2022/04/19 09:56:16;;;;;;;4.00;1.80;;;15.10;99.90;;;;;;5052588;28;20045;-78
2022/04/19 09:58:46;;;;;;;2.20;0.95;;;15.30;99.90;;;;;;5051697;28;20103;-78
2022/04/19 10:09:34;;;;;;;1.85;1.50;;;15.30;97.60;;;;;;5052020;28;20484;-76
2022/04/19 10:12:04;;;;;;;5.55;2.17;;;15.40;98.50;;;;;;5051439;28;20517;-77
2022/04/19 10:14:32;;;;;;;2.03;1.23;;;15.50;95.90;;;;;;5052163;28;20564;-77
2022/04/19 10:17:02;;;;;;;3.05;1.55;;;15.30;95.40;;;;;;5053550;28;20044;-77
2022/04/19 10:19:29;;;;;;;2.90;1.40;;;15.30;95.40;;;;;;5054444;28;20101;-77
2022/04/19 10:21:58;;;;;;;2.05;1.08;;;15.50;95.20;;;;;;5062910;28;20045;-78
2022/04/19 10:24:27;;;;;;;3.08;0.88;;;15.70;96.20;;;;;;5051174;28;20159;-77
2022/04/19 10:26:52;;;;;;;1.75;0.98;;;15.50;95.70;;;;;;5051607;28;20053;-78
2022/04/19 10:29:26;;;;;;;8.93;1.85;;;15.80;96.60;;;;;;5051875;28;20039;-77
2022/04/19 10:32:04;;;;;;;1.42;1.17;;;15.80;96.60;;;;;;5063215;28;20045;-80
2022/04/19 10:34:34;;;;;;;3.80;1.00;;;15.70;96.10;;;;;;5051748;28;20049;-76
2022/04/19 10:37:15;;;;;;;1.27;0.82;;;15.60;96.70;;;;;;5051156;28;20095;-76
2022/04/19 10:39:49;;;;;;;4.28;1.30;;;15.70;96.70;;;;;;5051751;28;20053;-76
2022/04/19 10:42:37;;;;;;;3.95;0.90;;;15.60;96.40;;;;;;5050582;28;20131;-76
2022/04/19 10:45:15;;;;;;;8.57;1.92;;;15.50;98.70;;;;;;5052334;28;20049;-77
2022/04/19 10:47:55;;;;;;;6.13;0.90;;;16.00;98.40;;;;;;5059403;28;20044;-80
2022/04/19 10:50:35;;;;;;;3.47;1.35;;;15.90;97.90;;;;;;5039161;28;20146;-78
2022/04/19 10:53:05;;;;;;;3.97;1.55;;;16.00;97.10;;;;;;5052479;28;20052;-78
2022/04/19 10:55:50;;;;;;;3.47;0.85;;;15.90;97.80;;;;;;5052429;28;20494;-78
2022/04/19 10:58:16;;;;;;;2.13;0.98;;;16.10;98.30;;;;;;5050533;28;20509;-76
2022/04/19 11:00:51;;;;;;;1.27;1.17;;;15.70;95.60;;;;;;5058983;28;20048;-76
2022/04/19 11:03:47;;;;;;;4.25;1.63;;;15.50;96.30;;;;;;5071657;28;20494;-75
2022/04/19 11:06:37;;;;;;;3.17;1.05;;;15.90;98.30;;;;;;5059907;28;20109;-77
2022/04/19 11:09:20;;;;;;;2.95;1.00;;;15.70;95.70;;;;;;5068887;28;20045;-76
2022/04/19 11:12:08;;;;;;;2.67;1.23;;;15.90;98.20;;;;;;5054856;28;20109;-76
2022/04/19 11:14:42;;;;;;;2.00;1.50;;;15.80;96.50;;;;;;5057008;28;20135;-77
2022/04/19 11:17:28;;;;;;;5.10;1.15;;;15.90;97.10;;;;;;5051961;28;20094;-76
2022/04/19 11:19:55;;;;;;;1.70;1.15;;;16.20;98.00;;;;;;5070294;28;20080;-76
2022/04/19 11:22:29;;;;;;;4.40;1.77;;;16.00;98.20;;;;;;5069682;28;20462;-78
2022/04/19 11:24:58;;;;;;;3.85;2.20;;;16.40;99.20;;;;;;5062803;28;20045;-76
2022/04/19 11:27:43;;;;;;;5.38;1.65;;;16.40;97.60;;;;;;5049335;28;20128;-76
2022/04/19 11:30:13;;;;;;;2.33;1.30;;;16.10;98.30;;;;;;5052662;28;20076;-77
2022/04/19 11:32:39;;;;;;;4.30;1.20;;;16.00;98.10;;;;;;5071037;28;20052;-78
2022/04/19 11:35:05;;;;;;;4.07;1.48;;;16.10;98.00;;;;;;5039166;28;20049;-75
2022/04/19 11:37:31;;;;;;;3.03;1.45;;;16.30;98.60;;;;;;5051472;28;20052;-76
2022/04/19 11:48:27;;;;;;;2.72;2.42;;;16.00;99.00;;;;;;5072798;28;20045;-77
2022/04/19 11:50:53;;;;;;;4.28;2.75;;;16.30;99.90;;;;;;5067271;28;20059;-77
2022/04/19 11:53:25;;;;;;;1.92;1.52;;;16.20;98.80;;;;;;5081876;28;20041;-76
2022/04/19 11:55:52;;;;;;;4.65;1.90;;;16.70;99.70;;;;;;5057242;28;20511;-76
2022/04/19 11:58:22;;;;;;;5.22;2.03;;;16.30;98.20;;;;;;5058018;28;20037;-76
2022/04/19 12:01:03;;;;;;;3.08;1.90;;;16.50;98.40;;;;;;5058827;28;20087;-77
2022/04/19 12:03:31;;;;;;;11.73;2.83;;;16.60;99.30;;;;;;5050495;28;20507;-77
2022/04/19 12:06:08;;;;;;;1.77;1.65;;;16.40;98.90;;;;;;5068785;28;20120;-77
2022/04/19 12:08:40;;;;;;;3.13;2.03;;;16.40;97.90;;;;;;5067018;28;20045;-77
2022/04/19 12:11:09;;;;;;;3.55;2.97;;;16.40;99.70;;;;;;5050337;28;20040;-76
2022/04/19 12:13:35;;;;;;;9.05;2.55;;;16.40;98.40;;;;;;5050455;28;20072;-76
2022/04/19 12:16:03;;;;;;;4.53;2.00;;;16.40;99.20;;;;;;5064004;28;20044;-77
2022/04/19 12:18:38;;;;;;;8.27;1.98;;;16.30;98.70;;;;;;5067988;28;20102;-76
2022/04/19 12:21:06;;;;;;;3.75;1.88;;;16.50;99.70;;;;;;5057790;28;20558;-76
2022/04/19 12:23:34;;;;;;;2.22;1.58;;;16.70;98.40;;;;;;5058161;28;20098;-76
2022/04/19 12:26:07;;;;;;;2.85;1.85;;;16.90;98.40;;;;;;5063725;28;20064;-76
2022/04/19 12:28:47;;;;;;;4.75;2.30;;;16.80;99.60;;;;;;5048443;28;20080;-77
2022/04/19 12:31:32;;;;;;;3.40;2.90;;;16.60;98.80;;;;;;5063117;28;20040;-77
2022/04/19 12:34:02;;;;;;;5.15;2.42;;;16.80;99.70;;;;;;5064353;28;20044;-74
2022/04/19 12:36:28;;;;;;;4.43;1.83;;;16.70;98.10;;;;;;5066635;28;20521;-76
2022/04/19 12:38:59;;;;;;;2.45;1.50;;;16.60;99.30;;;;;;5066616;28;20033;-75
2022/04/19 12:41:42;;;;;;;5.13;2.17;;;16.60;99.10;;;;;;5069051;28;20083;-76
2022/04/19 12:44:10;;;;;;;3.90;1.80;;;16.70;98.50;;;;;;5058511;28;20048;-74
2022/04/19 12:46:40;;;;;;;1.83;1.42;;;16.60;98.40;;;;;;5049342;28;20033;-76
2022/04/19 12:49:06;;;;;;;5.22;2.15;;;16.60;98.20;;;;;;5065603;28;20090;-76
2022/04/19 12:51:31;;;;;;;15.00;3.05;;;16.70;99.40;;;;;;5066102;28;20210;-76
2022/04/19 12:54:07;;;;;;;2.83;1.92;;;16.80;98.20;;;;;;5067727;28;20051;-76
2022/04/19 12:56:34;;;;;;;2.72;2.42;;;16.90;98.20;;;;;;5069363;28;20079;-76
2022/04/19 12:59:00;;;;;;;2.00;1.70;;;16.80;97.60;;;;;;5063846;28;20083;-77
2022/04/19 13:01:25;;;;;;;1.83;1.38;;;16.90;98.60;;;;;;5069978;28;20037;-75
2022/04/19 13:03:51;;;;;;;3.42;1.50;;;16.70;98.20;;;;;;5068508;28;20449;-76
2022/04/19 13:14:30;;;;;;;1.77;1.65;;;16.90;98.00;;;;;;5051751;28;20147;-76
2022/04/19 13:16:56;;;;;;;6.18;1.88;;;16.70;98.50;;;;;;5051956;28;20128;-77
2022/04/19 13:19:22;;;;;;;3.78;2.42;;;16.80;99.00;;;;;;5050065;28;20587;-77
2022/04/19 13:21:47;;;;;;;1.83;1.50;;;16.80;97.80;;;;;;5060057;28;20048;-77
2022/04/19 13:24:14;;;;;;;3.42;1.60;;;16.80;98.00;;;;;;5060221;28;20360;-77
2022/04/19 13:26:39;;;;;;;1.73;1.50;;;16.90;99.40;;;;;;5049031;28;20603;-77
2022/04/19 13:29:05;;;;;;;5.30;1.52;;;16.90;98.10;;;;;;5053247;28;20037;-77
2022/04/19 13:31:31;;;;;;;5.32;1.85;;;16.70;97.90;;;;;;5052764;28;20495;-76
2022/04/19 13:33:57;;;;;;;2.15;1.50;;;16.60;97.50;;;;;;5054026;28;20045;-76
2022/04/19 13:36:24;;;;;;;1.52;1.40;;;16.70;98.40;;;;;;5053182;28;20049;-76